KHFF/HFF METAR and TAF weather

Enter ICAO airport designator
Station Type Date Time Source
KHFF METAR 2018/12/13 21:25 UTC NOAA

KHFF 132125Z AUTO 11003KT 10SM SCT200 BKN240 11/01 A3028 RMK AO2 SLP272


Station Type Date Time Source
KHFF Decoded METAR 2018/12/13 21:25 UTC NOAA

Mackall U. S. Army Airfield, NC, United States (KHFF) 35-02N 079-30W
Dec 13, 2018 - 04:25 PM EST / 2018.12.13 2125 UTC
Wind: from the ESE (110 degrees) at 3 MPH (3 KT):0
Visibility: 10 mile(s):0
Sky conditions: mostly cloudy
Temperature: 51 F (11 C)
Dew Point: 33 F (1 C)
Relative Humidity: 50%
Pressure (altimeter): 30.28 in. Hg (1025 hPa)
ob: KHFF 132125Z AUTO 11003KT 10SM SCT200 BKN240 11/01 A3028 RMK AO2 SLP272
cycle: 21

Station Type Date Time Source
KHFF TAF UTC NOAA

Error!


Example: see airport list